sensor_id;sensor_type;location;lat;lon;timestamp;P1;durP1;ratioP1;P2;durP2;ratioP2
33254;SDS011;19623;52.482;9.762;2022-09-03T00:00:53;597.10;;;547.25;;
33254;SDS011;19623;52.482;9.762;2022-09-03T00:06:22;602.38;;;549.80;;
33254;SDS011;19623;52.482;9.762;2022-09-03T00:11:49;608.10;;;555.78;;
33254;SDS011;19623;52.482;9.762;2022-09-03T00:14:33;607.80;;;554.25;;
33254;SDS011;19623;52.482;9.762;2022-09-03T00:17:16;599.35;;;547.08;;
33254;SDS011;19623;52.482;9.762;2022-09-03T00:19:55;594.63;;;542.53;;
33254;SDS011;19623;52.482;9.762;2022-09-03T00:22:44;602.38;;;548.85;;
33254;SDS011;19623;52.482;9.762;2022-09-03T00:25:12;595.88;;;543.10;;
33254;SDS011;19623;52.482;9.762;2022-09-03T00:27:46;596.83;;;543.80;;
33254;SDS011;19623;52.482;9.762;2022-09-03T00:35:19;582.83;;;530.28;;
33254;SDS011;19623;52.482;9.762;2022-09-03T00:37:53;596.47;;;542.60;;
33254;SDS011;19623;52.482;9.762;2022-09-03T00:40:35;588.67;;;536.35;;
33254;SDS011;19623;52.482;9.762;2022-09-03T00:52:27;587.33;;;535.40;;
33254;SDS011;19623;52.482;9.762;2022-09-03T01:00:16;573.83;;;523.40;;
33254;SDS011;19623;52.482;9.762;2022-09-03T01:30:44;529.65;;;484.20;;
33254;SDS011;19623;52.482;9.762;2022-09-03T01:33:29;529.97;;;483.73;;
33254;SDS011;19623;52.482;9.762;2022-09-03T01:41:51;539.47;;;491.25;;
33254;SDS011;19623;52.482;9.762;2022-09-03T01:53:08;521.80;;;474.65;;
33254;SDS011;19623;52.482;9.762;2022-09-03T02:01:18;518.42;;;470.98;;
33254;SDS011;19623;52.482;9.762;2022-09-03T02:03:51;524.47;;;478.25;;
33254;SDS011;19623;52.482;9.762;2022-09-03T02:06:24;533.15;;;487.33;;
33254;SDS011;19623;52.482;9.762;2022-09-03T02:08:55;531.50;;;485.05;;
33254;SDS011;19623;52.482;9.762;2022-09-03T02:11:21;534.25;;;486.75;;
33254;SDS011;19623;52.482;9.762;2022-09-03T02:13:49;539.15;;;492.23;;
33254;SDS011;19623;52.482;9.762;2022-09-03T02:16:22;533.83;;;488.33;;
33254;SDS011;19623;52.482;9.762;2022-09-03T02:18:56;529.30;;;484.48;;
33254;SDS011;19623;52.482;9.762;2022-09-03T02:21:26;530.85;;;486.13;;
33254;SDS011;19623;52.482;9.762;2022-09-03T02:23:59;534.97;;;489.08;;
33254;SDS011;19623;52.482;9.762;2022-09-03T02:26:27;535.88;;;490.40;;
33254;SDS011;19623;52.482;9.762;2022-09-03T02:28:52;537.75;;;492.27;;
33254;SDS011;19623;52.482;9.762;2022-09-03T02:31:19;531.20;;;486.38;;
33254;SDS011;19623;52.482;9.762;2022-09-03T02:33:46;511.40;;;470.45;;
33254;SDS011;19623;52.482;9.762;2022-09-03T02:36:14;542.53;;;497.85;;
33254;SDS011;19623;52.482;9.762;2022-09-03T02:38:43;544.50;;;498.55;;
33254;SDS011;19623;52.482;9.762;2022-09-03T02:41:09;548.58;;;501.20;;
33254;SDS011;19623;52.482;9.762;2022-09-03T02:46:34;545.53;;;495.20;;
33254;SDS011;19623;52.482;9.762;2022-09-03T02:49:04;543.75;;;493.08;;
33254;SDS011;19623;52.482;9.762;2022-09-03T02:51:31;553.88;;;502.75;;
33254;SDS011;19623;52.482;9.762;2022-09-03T02:53:59;551.13;;;500.23;;
33254;SDS011;19623;52.482;9.762;2022-09-03T02:56:25;558.72;;;508.42;;
33254;SDS011;19623;52.482;9.762;2022-09-03T02:58:52;553.03;;;502.80;;
33254;SDS011;19623;52.482;9.762;2022-09-03T03:01:18;558.92;;;508.60;;
33254;SDS011;19623;52.482;9.762;2022-09-03T03:03:44;558.45;;;507.20;;
33254;SDS011;19623;52.482;9.762;2022-09-03T03:06:10;547.88;;;497.95;;
33254;SDS011;19623;52.482;9.762;2022-09-03T03:08:37;557.90;;;505.20;;
33254;SDS011;19623;52.482;9.762;2022-09-03T03:11:03;539.83;;;490.65;;
33254;SDS011;19623;52.482;9.762;2022-09-03T03:13:30;543.67;;;493.58;;
33254;SDS011;19623;52.482;9.762;2022-09-03T03:15:57;534.67;;;484.67;;
33254;SDS011;19623;52.482;9.762;2022-09-03T03:18:24;535.00;;;485.35;;
33254;SDS011;19623;52.482;9.762;2022-09-03T03:20:49;533.05;;;484.60;;
33254;SDS011;19623;52.482;9.762;2022-09-03T03:23:15;526.28;;;479.30;;
33254;SDS011;19623;52.482;9.762;2022-09-03T03:25:41;532.20;;;484.85;;
33254;SDS011;19623;52.482;9.762;2022-09-03T03:28:07;533.17;;;485.70;;
33254;SDS011;19623;52.482;9.762;2022-09-03T03:30:33;548.42;;;500.38;;
33254;SDS011;19623;52.482;9.762;2022-09-03T03:33:02;538.63;;;490.98;;
33254;SDS011;19623;52.482;9.762;2022-09-03T03:35:29;548.20;;;499.80;;
33254;SDS011;19623;52.482;9.762;2022-09-03T03:37:56;547.28;;;499.40;;
33254;SDS011;19623;52.482;9.762;2022-09-03T03:40:22;543.70;;;495.85;;
33254;SDS011;19623;52.482;9.762;2022-09-03T03:42:48;546.67;;;499.52;;
33254;SDS011;19623;52.482;9.762;2022-09-03T03:45:14;534.05;;;487.85;;
33254;SDS011;19623;52.482;9.762;2022-09-03T03:47:39;546.60;;;498.05;;
33254;SDS011;19623;52.482;9.762;2022-09-03T03:50:05;564.05;;;506.45;;
33254;SDS011;19623;52.482;9.762;2022-09-03T03:52:31;548.22;;;493.58;;
33254;SDS011;19623;52.482;9.762;2022-09-03T03:54:57;547.72;;;494.25;;
33254;SDS011;19623;52.482;9.762;2022-09-03T03:57:22;554.53;;;499.05;;
33254;SDS011;19623;52.482;9.762;2022-09-03T03:59:48;558.55;;;503.95;;
33254;SDS011;19623;52.482;9.762;2022-09-03T04:02:14;555.28;;;501.65;;
33254;SDS011;19623;52.482;9.762;2022-09-03T04:04:42;559.38;;;505.75;;
33254;SDS011;19623;52.482;9.762;2022-09-03T04:07:08;563.42;;;508.67;;
33254;SDS011;19623;52.482;9.762;2022-09-03T04:09:34;559.88;;;506.90;;
33254;SDS011;19623;52.482;9.762;2022-09-03T04:11:59;563.75;;;509.50;;
33254;SDS011;19623;52.482;9.762;2022-09-03T04:14:26;552.15;;;498.40;;
33254;SDS011;19623;52.482;9.762;2022-09-03T04:16:54;540.15;;;488.33;;
33254;SDS011;19623;52.482;9.762;2022-09-03T04:19:20;547.38;;;495.83;;
33254;SDS011;19623;52.482;9.762;2022-09-03T04:21:46;547.50;;;494.92;;
33254;SDS011;19623;52.482;9.762;2022-09-03T04:24:12;545.70;;;494.40;;
33254;SDS011;19623;52.482;9.762;2022-09-03T04:26:37;537.20;;;486.15;;
33254;SDS011;19623;52.482;9.762;2022-09-03T04:29:05;522.70;;;475.92;;
33254;SDS011;19623;52.482;9.762;2022-09-03T04:31:32;509.25;;;465.13;;
33254;SDS011;19623;52.482;9.762;2022-09-03T04:33:59;527.05;;;480.10;;
33254;SDS011;19623;52.482;9.762;2022-09-03T04:36:25;511.48;;;466.70;;
33254;SDS011;19623;52.482;9.762;2022-09-03T04:38:53;530.80;;;480.30;;
33254;SDS011;19623;52.482;9.762;2022-09-03T04:41:21;528.92;;;477.85;;
33254;SDS011;19623;52.482;9.762;2022-09-03T04:46:17;486.38;;;438.42;;
33254;SDS011;19623;52.482;9.762;2022-09-03T04:48:46;512.97;;;460.98;;
33254;SDS011;19623;52.482;9.762;2022-09-03T04:51:15;506.98;;;457.42;;
33254;SDS011;19623;52.482;9.762;2022-09-03T04:53:45;516.35;;;464.30;;
33254;SDS011;19623;52.482;9.762;2022-09-03T04:56:18;502.65;;;453.40;;
33254;SDS011;19623;52.482;9.762;2022-09-03T04:58:45;511.90;;;461.15;;
33254;SDS011;19623;52.482;9.762;2022-09-03T05:01:16;513.53;;;462.67;;
33254;SDS011;19623;52.482;9.762;2022-09-03T05:06:09;487.70;;;436.38;;
33254;SDS011;19623;52.482;9.762;2022-09-03T05:08:34;507.25;;;456.38;;
33254;SDS011;19623;52.482;9.762;2022-09-03T05:11:04;496.50;;;445.00;;
33254;SDS011;19623;52.482;9.762;2022-09-03T05:13:31;499.23;;;445.38;;
33254;SDS011;19623;52.482;9.762;2022-09-03T05:15:59;515.35;;;460.38;;
33254;SDS011;19623;52.482;9.762;2022-09-03T05:18:25;519.95;;;464.98;;
33254;SDS011;19623;52.482;9.762;2022-09-03T05:20:56;520.03;;;465.50;;
33254;SDS011;19623;52.482;9.762;2022-09-03T05:23:27;501.73;;;449.48;;
33254;SDS011;19623;52.482;9.762;2022-09-03T05:25:57;511.73;;;459.15;;
33254;SDS011;19623;52.482;9.762;2022-09-03T05:28:25;510.23;;;456.42;;
33254;SDS011;19623;52.482;9.762;2022-09-03T05:30:58;513.78;;;459.73;;
33254;SDS011;19623;52.482;9.762;2022-09-03T05:33:29;504.80;;;450.42;;
33254;SDS011;19623;52.482;9.762;2022-09-03T05:36:05;505.88;;;450.33;;
33254;SDS011;19623;52.482;9.762;2022-09-03T05:38:32;512.75;;;458.48;;
33254;SDS011;19623;52.482;9.762;2022-09-03T05:40:59;518.47;;;464.20;;
33254;SDS011;19623;52.482;9.762;2022-09-03T05:43:27;518.38;;;465.13;;
33254;SDS011;19623;52.482;9.762;2022-09-03T05:45:59;515.30;;;461.35;;
33254;SDS011;19623;52.482;9.762;2022-09-03T05:48:28;517.00;;;464.48;;
33254;SDS011;19623;52.482;9.762;2022-09-03T05:50:57;515.35;;;463.05;;
33254;SDS011;19623;52.482;9.762;2022-09-03T05:53:24;507.95;;;452.17;;
33254;SDS011;19623;52.482;9.762;2022-09-03T05:55:54;511.65;;;457.70;;
33254;SDS011;19623;52.482;9.762;2022-09-03T05:58:21;522.05;;;466.52;;
33254;SDS011;19623;52.482;9.762;2022-09-03T06:00:47;521.78;;;468.00;;
33254;SDS011;19623;52.482;9.762;2022-09-03T06:03:12;524.97;;;471.08;;
33254;SDS011;19623;52.482;9.762;2022-09-03T06:05:38;531.63;;;477.83;;
33254;SDS011;19623;52.482;9.762;2022-09-03T06:08:03;529.17;;;476.27;;
33254;SDS011;19623;52.482;9.762;2022-09-03T06:10:29;531.28;;;479.40;;
33254;SDS011;19623;52.482;9.762;2022-09-03T06:12:55;531.42;;;480.23;;
33254;SDS011;19623;52.482;9.762;2022-09-03T06:15:27;532.53;;;481.27;;
33254;SDS011;19623;52.482;9.762;2022-09-03T06:17:53;537.45;;;486.70;;
33254;SDS011;19623;52.482;9.762;2022-09-03T06:20:18;543.60;;;492.33;;
33254;SDS011;19623;52.482;9.762;2022-09-03T06:22:47;547.40;;;495.90;;
33254;SDS011;19623;52.482;9.762;2022-09-03T06:25:16;540.05;;;488.35;;
33254;SDS011;19623;52.482;9.762;2022-09-03T06:27:43;557.80;;;505.58;;
33254;SDS011;19623;52.482;9.762;2022-09-03T06:30:09;552.63;;;500.42;;
33254;SDS011;19623;52.482;9.762;2022-09-03T06:32:45;569.95;;;517.13;;
33254;SDS011;19623;52.482;9.762;2022-09-03T06:35:11;554.88;;;501.50;;
33254;SDS011;19623;52.482;9.762;2022-09-03T06:37:40;568.95;;;516.20;;
33254;SDS011;19623;52.482;9.762;2022-09-03T06:40:07;568.88;;;515.55;;
33254;SDS011;19623;52.482;9.762;2022-09-03T06:42:39;571.38;;;516.42;;
33254;SDS011;19623;52.482;9.762;2022-09-03T06:45:07;575.33;;;523.00;;
33254;SDS011;19623;52.482;9.762;2022-09-03T06:47:34;566.05;;;513.10;;
33254;SDS011;19623;52.482;9.762;2022-09-03T06:50:00;573.03;;;521.08;;
33254;SDS011;19623;52.482;9.762;2022-09-03T06:52:26;577.70;;;524.92;;
33254;SDS011;19623;52.482;9.762;2022-09-03T06:54:53;582.15;;;530.97;;
33254;SDS011;19623;52.482;9.762;2022-09-03T06:57:19;578.67;;;527.35;;
33254;SDS011;19623;52.482;9.762;2022-09-03T06:59:44;591.05;;;538.75;;
33254;SDS011;19623;52.482;9.762;2022-09-03T07:02:10;583.70;;;534.63;;
33254;SDS011;19623;52.482;9.762;2022-09-03T07:04:36;586.47;;;536.50;;
33254;SDS011;19623;52.482;9.762;2022-09-03T07:07:02;591.97;;;542.17;;
33254;SDS011;19623;52.482;9.762;2022-09-03T07:09:27;603.75;;;552.92;;
33254;SDS011;19623;52.482;9.762;2022-09-03T07:11:53;616.35;;;564.22;;
33254;SDS011;19623;52.482;9.762;2022-09-03T07:14:19;619.35;;;565.10;;
33254;SDS011;19623;52.482;9.762;2022-09-03T07:16:46;607.63;;;554.60;;
33254;SDS011;19623;52.482;9.762;2022-09-03T07:19:13;623.90;;;570.90;;
33254;SDS011;19623;52.482;9.762;2022-09-03T07:21:39;626.03;;;572.70;;
33254;SDS011;19623;52.482;9.762;2022-09-03T07:24:06;629.25;;;575.60;;
33254;SDS011;19623;52.482;9.762;2022-09-03T07:26:34;640.92;;;587.55;;
33254;SDS011;19623;52.482;9.762;2022-09-03T07:29:02;634.63;;;580.97;;
33254;SDS011;19623;52.482;9.762;2022-09-03T07:31:30;632.30;;;579.90;;
33254;SDS011;19623;52.482;9.762;2022-09-03T07:33:58;618.83;;;569.13;;
33254;SDS011;19623;52.482;9.762;2022-09-03T07:36:38;636.00;;;584.55;;
33254;SDS011;19623;52.482;9.762;2022-09-03T07:39:06;643.70;;;590.55;;
33254;SDS011;19623;52.482;9.762;2022-09-03T07:41:32;657.20;;;604.80;;
33254;SDS011;19623;52.482;9.762;2022-09-03T07:43:58;635.33;;;585.83;;
33254;SDS011;19623;52.482;9.762;2022-09-03T07:46:30;673.47;;;618.88;;
33254;SDS011;19623;52.482;9.762;2022-09-03T07:48:57;661.22;;;608.17;;
33254;SDS011;19623;52.482;9.762;2022-09-03T07:51:27;673.05;;;618.38;;
33254;SDS011;19623;52.482;9.762;2022-09-03T07:53:58;670.55;;;616.78;;
33254;SDS011;19623;52.482;9.762;2022-09-03T07:56:28;680.28;;;625.20;;
33254;SDS011;19623;52.482;9.762;2022-09-03T07:59:02;656.58;;;605.33;;
33254;SDS011;19623;52.482;9.762;2022-09-03T08:01:29;649.30;;;599.10;;
33254;SDS011;19623;52.482;9.762;2022-09-03T08:03:56;663.50;;;611.10;;
33254;SDS011;19623;52.482;9.762;2022-09-03T08:06:23;670.47;;;617.97;;
33254;SDS011;19623;52.482;9.762;2022-09-03T08:08:57;654.25;;;603.75;;
33254;SDS011;19623;52.482;9.762;2022-09-03T08:11:25;637.63;;;589.05;;
33254;SDS011;19623;52.482;9.762;2022-09-03T08:13:53;645.88;;;595.75;;
33254;SDS011;19623;52.482;9.762;2022-09-03T08:16:21;638.70;;;589.65;;
33254;SDS011;19623;52.482;9.762;2022-09-03T08:18:47;665.67;;;614.55;;
33254;SDS011;19623;52.482;9.762;2022-09-03T08:21:16;680.90;;;627.83;;
33254;SDS011;19623;52.482;9.762;2022-09-03T08:23:47;682.85;;;629.83;;
33254;SDS011;19623;52.482;9.762;2022-09-03T08:26:15;681.30;;;628.15;;
33254;SDS011;19623;52.482;9.762;2022-09-03T08:28:42;698.42;;;644.38;;
33254;SDS011;19623;52.482;9.762;2022-09-03T08:31:09;714.78;;;659.08;;
33254;SDS011;19623;52.482;9.762;2022-09-03T08:33:47;698.97;;;645.30;;
33254;SDS011;19623;52.482;9.762;2022-09-03T08:36:16;679.85;;;627.92;;
33254;SDS011;19623;52.482;9.762;2022-09-03T08:38:42;651.03;;;601.78;;
33254;SDS011;19623;52.482;9.762;2022-09-03T08:46:43;657.38;;;607.78;;
33254;SDS011;19623;52.482;9.762;2022-09-03T08:49:12;653.20;;;604.17;;
33254;SDS011;19623;52.482;9.762;2022-09-03T08:51:42;683.70;;;632.35;;
33254;SDS011;19623;52.482;9.762;2022-09-03T08:54:12;671.50;;;621.10;;
33254;SDS011;19623;52.482;9.762;2022-09-03T08:56:39;653.72;;;604.83;;
33254;SDS011;19623;52.482;9.762;2022-09-03T08:59:07;667.58;;;617.42;;
33254;SDS011;19623;52.482;9.762;2022-09-03T09:01:38;662.85;;;613.35;;
33254;SDS011;19623;52.482;9.762;2022-09-03T09:07:20;718.70;;;663.88;;
33254;SDS011;19623;52.482;9.762;2022-09-03T09:12:55;684.95;;;632.90;;
33254;SDS011;19623;52.482;9.762;2022-09-03T09:21:10;682.78;;;630.92;;
33254;SDS011;19623;52.482;9.762;2022-09-03T09:23:47;683.50;;;631.63;;
33254;SDS011;19623;52.482;9.762;2022-09-03T09:26:15;680.35;;;628.47;;
33254;SDS011;19623;52.482;9.762;2022-09-03T09:28:42;680.85;;;629.15;;
33254;SDS011;19623;52.482;9.762;2022-09-03T09:31:11;655.28;;;605.60;;
33254;SDS011;19623;52.482;9.762;2022-09-03T09:33:40;669.78;;;618.95;;
33254;SDS011;19623;52.482;9.762;2022-09-03T09:36:09;658.22;;;607.92;;
33254;SDS011;19623;52.482;9.762;2022-09-03T09:38:39;669.60;;;618.72;;
33254;SDS011;19623;52.482;9.762;2022-09-03T09:41:12;630.13;;;582.50;;
33254;SDS011;19623;52.482;9.762;2022-09-03T09:43:47;563.78;;;522.22;;
33254;SDS011;19623;52.482;9.762;2022-09-03T09:46:38;632.65;;;584.80;;
33254;SDS011;19623;52.482;9.762;2022-09-03T09:52:03;635.38;;;586.80;;
33254;SDS011;19623;52.482;9.762;2022-09-03T09:54:35;631.60;;;583.13;;
33254;SDS011;19623;52.482;9.762;2022-09-03T09:57:04;626.30;;;579.00;;
33254;SDS011;19623;52.482;9.762;2022-09-03T09:59:31;639.08;;;590.38;;
33254;SDS011;19623;52.482;9.762;2022-09-03T10:05:12;646.90;;;597.70;;
33254;SDS011;19623;52.482;9.762;2022-09-03T10:07:39;637.80;;;589.63;;
33254;SDS011;19623;52.482;9.762;2022-09-03T10:10:09;651.05;;;601.58;;
33254;SDS011;19623;52.482;9.762;2022-09-03T10:15:14;569.08;;;526.80;;
33254;SDS011;19623;52.482;9.762;2022-09-03T10:20:39;595.55;;;551.33;;
33254;SDS011;19623;52.482;9.762;2022-09-03T10:23:21;598.42;;;553.85;;
33254;SDS011;19623;52.482;9.762;2022-09-03T10:25:56;575.42;;;532.63;;
33254;SDS011;19623;52.482;9.762;2022-09-03T10:28:34;555.42;;;513.83;;
33254;SDS011;19623;52.482;9.762;2022-09-03T10:34:05;609.65;;;563.13;;
33254;SDS011;19623;52.482;9.762;2022-09-03T10:40:01;564.90;;;522.92;;
33254;SDS011;19623;52.482;9.762;2022-09-03T10:44:59;588.90;;;544.50;;
33254;SDS011;19623;52.482;9.762;2022-09-03T10:50:54;571.33;;;528.45;;
33254;SDS011;19623;52.482;9.762;2022-09-03T10:56:08;542.90;;;501.92;;
33254;SDS011;19623;52.482;9.762;2022-09-03T10:59:18;543.40;;;502.98;;
33254;SDS011;19623;52.482;9.762;2022-09-03T11:07:05;579.20;;;535.65;;
33254;SDS011;19623;52.482;9.762;2022-09-03T11:12:07;571.60;;;528.53;;
33254;SDS011;19623;52.482;9.762;2022-09-03T11:14:38;579.40;;;535.67;;
33254;SDS011;19623;52.482;9.762;2022-09-03T11:17:20;529.40;;;490.08;;
33254;SDS011;19623;52.482;9.762;2022-09-03T11:20:15;507.92;;;470.88;;
33254;SDS011;19623;52.482;9.762;2022-09-03T11:22:46;478.05;;;443.20;;
33254;SDS011;19623;52.482;9.762;2022-09-03T11:25:15;485.48;;;450.50;;
33254;SDS011;19623;52.482;9.762;2022-09-03T11:27:53;497.77;;;461.23;;
33254;SDS011;19623;52.482;9.762;2022-09-03T11:30:39;438.40;;;407.52;;
33254;SDS011;19623;52.482;9.762;2022-09-03T11:33:18;420.67;;;391.60;;
33254;SDS011;19623;52.482;9.762;2022-09-03T11:35:46;432.00;;;402.10;;
33254;SDS011;19623;52.482;9.762;2022-09-03T11:38:21;440.15;;;409.38;;
33254;SDS011;19623;52.482;9.762;2022-09-03T11:41:09;448.98;;;416.38;;
33254;SDS011;19623;52.482;9.762;2022-09-03T11:43:38;428.45;;;398.63;;
33254;SDS011;19623;52.482;9.762;2022-09-03T11:46:05;415.50;;;387.05;;
33254;SDS011;19623;52.482;9.762;2022-09-03T11:48:54;412.92;;;384.55;;
33254;SDS011;19623;52.482;9.762;2022-09-03T11:56:23;335.45;;;312.98;;
33254;SDS011;19623;52.482;9.762;2022-09-03T11:58:59;345.20;;;322.17;;
33254;SDS011;19623;52.482;9.762;2022-09-03T12:01:46;301.35;;;281.63;;
33254;SDS011;19623;52.482;9.762;2022-09-03T12:04:17;302.30;;;282.58;;
33254;SDS011;19623;52.482;9.762;2022-09-03T12:15:07;311.33;;;290.88;;
33254;SDS011;19623;52.482;9.762;2022-09-03T12:17:54;385.95;;;359.77;;
33254;SDS011;19623;52.482;9.762;2022-09-03T12:20:43;398.92;;;371.40;;
33254;SDS011;19623;52.482;9.762;2022-09-03T12:23:10;414.05;;;384.60;;
33254;SDS011;19623;52.482;9.762;2022-09-03T12:25:45;309.98;;;289.85;;
33254;SDS011;19623;52.482;9.762;2022-09-03T12:28:11;391.92;;;365.30;;
33254;SDS011;19623;52.482;9.762;2022-09-03T12:30:43;414.55;;;385.48;;
33254;SDS011;19623;52.482;9.762;2022-09-03T12:33:10;425.70;;;396.08;;
33254;SDS011;19623;52.482;9.762;2022-09-03T12:35:41;418.27;;;389.13;;
33254;SDS011;19623;52.482;9.762;2022-09-03T12:38:07;431.10;;;401.05;;
33254;SDS011;19623;52.482;9.762;2022-09-03T12:40:40;431.83;;;401.30;;
33254;SDS011;19623;52.482;9.762;2022-09-03T12:43:11;385.05;;;358.52;;
33254;SDS011;19623;52.482;9.762;2022-09-03T12:45:42;402.20;;;374.23;;
33254;SDS011;19623;52.482;9.762;2022-09-03T12:48:13;389.63;;;362.90;;
33254;SDS011;19623;52.482;9.762;2022-09-03T12:50:40;361.58;;;337.35;;
33254;SDS011;19623;52.482;9.762;2022-09-03T12:53:06;396.38;;;369.35;;
33254;SDS011;19623;52.482;9.762;2022-09-03T12:55:42;379.92;;;353.77;;
33254;SDS011;19623;52.482;9.762;2022-09-03T12:58:24;372.67;;;347.35;;
33254;SDS011;19623;52.482;9.762;2022-09-03T13:01:14;365.52;;;340.73;;
33254;SDS011;19623;52.482;9.762;2022-09-03T13:06:20;294.23;;;274.80;;
33254;SDS011;19623;52.482;9.762;2022-09-03T13:08:48;306.27;;;286.35;;
33254;SDS011;19623;52.482;9.762;2022-09-03T13:11:21;308.80;;;288.55;;
33254;SDS011;19623;52.482;9.762;2022-09-03T13:13:53;326.55;;;304.83;;
33254;SDS011;19623;52.482;9.762;2022-09-03T13:32:24;284.20;;;265.55;;
33254;SDS011;19623;52.482;9.762;2022-09-03T13:35:23;292.58;;;273.75;;
33254;SDS011;19623;52.482;9.762;2022-09-03T13:40:55;346.00;;;322.88;;
33254;SDS011;19623;52.482;9.762;2022-09-03T13:43:43;355.20;;;331.38;;
33254;SDS011;19623;52.482;9.762;2022-09-03T13:46:15;393.85;;;366.67;;
33254;SDS011;19623;52.482;9.762;2022-09-03T13:48:56;372.70;;;347.23;;
33254;SDS011;19623;52.482;9.762;2022-09-03T13:51:50;343.98;;;320.98;;
33254;SDS011;19623;52.482;9.762;2022-09-03T13:54:29;402.10;;;374.38;;
33254;SDS011;19623;52.482;9.762;2022-09-03T14:15:59;357.35;;;333.17;;
33254;SDS011;19623;52.482;9.762;2022-09-03T14:18:37;361.08;;;336.80;;
33254;SDS011;19623;52.482;9.762;2022-09-03T14:21:14;328.73;;;307.02;;
33254;SDS011;19623;52.482;9.762;2022-09-03T14:23:46;296.67;;;277.48;;
33254;SDS011;19623;52.482;9.762;2022-09-03T14:26:21;320.85;;;299.70;;
33254;SDS011;19623;52.482;9.762;2022-09-03T14:28:58;315.20;;;294.35;;
33254;SDS011;19623;52.482;9.762;2022-09-03T14:42:59;257.90;;;241.68;;
33254;SDS011;19623;52.482;9.762;2022-09-03T14:51:09;304.50;;;284.77;;
33254;SDS011;19623;52.482;9.762;2022-09-03T14:57:33;317.30;;;296.77;;
33254;SDS011;19623;52.482;9.762;2022-09-03T15:04:49;295.15;;;275.98;;
33254;SDS011;19623;52.482;9.762;2022-09-03T15:10:29;301.52;;;281.90;;
33254;SDS011;19623;52.482;9.762;2022-09-03T15:13:18;327.08;;;305.20;;
33254;SDS011;19623;52.482;9.762;2022-09-03T15:29:58;281.55;;;263.67;;
33254;SDS011;19623;52.482;9.762;2022-09-03T15:32:44;283.48;;;265.30;;
33254;SDS011;19623;52.482;9.762;2022-09-03T15:35:18;258.42;;;241.90;;
33254;SDS011;19623;52.482;9.762;2022-09-03T15:41:51;277.02;;;259.00;;
33254;SDS011;19623;52.482;9.762;2022-09-03T15:43:57;280.63;;;262.70;;
33254;SDS011;19623;52.482;9.762;2022-09-03T15:49:15;238.23;;;223.35;;
33254;SDS011;19623;52.482;9.762;2022-09-03T15:52:05;254.10;;;237.68;;
33254;SDS011;19623;52.482;9.762;2022-09-03T15:54:37;258.38;;;241.40;;
33254;SDS011;19623;52.482;9.762;2022-09-03T15:57:57;261.25;;;244.68;;
33254;SDS011;19623;52.482;9.762;2022-09-03T16:00:19;250.52;;;234.88;;
33254;SDS011;19623;52.482;9.762;2022-09-03T16:02:54;265.20;;;248.50;;
33254;SDS011;19623;52.482;9.762;2022-09-03T16:23:30;306.10;;;286.60;;
33254;SDS011;19623;52.482;9.762;2022-09-03T16:26:17;315.98;;;295.35;;
33254;SDS011;19623;52.482;9.762;2022-09-03T16:29:14;343.63;;;320.75;;
33254;SDS011;19623;52.482;9.762;2022-09-03T16:34:27;219.23;;;205.63;;
33254;SDS011;19623;52.482;9.762;2022-09-03T16:37:33;264.60;;;247.93;;
33254;SDS011;19623;52.482;9.762;2022-09-03T16:47:58;306.83;;;287.02;;
33254;SDS011;19623;52.482;9.762;2022-09-03T17:04:45;302.00;;;282.27;;
33254;SDS011;19623;52.482;9.762;2022-09-03T17:08:02;291.63;;;272.77;;
33254;SDS011;19623;52.482;9.762;2022-09-03T17:10:20;313.33;;;293.42;;
33254;SDS011;19623;52.482;9.762;2022-09-03T17:13:29;330.88;;;309.67;;
33254;SDS011;19623;52.482;9.762;2022-09-03T17:27:15;361.92;;;338.42;;
33254;SDS011;19623;52.482;9.762;2022-09-03T17:30:19;374.20;;;349.67;;
33254;SDS011;19623;52.482;9.762;2022-09-03T17:36:01;417.35;;;389.13;;
33254;SDS011;19623;52.482;9.762;2022-09-03T17:41:29;358.25;;;335.17;;
33254;SDS011;19623;52.482;9.762;2022-09-03T17:49:01;382.98;;;357.60;;
33254;SDS011;19623;52.482;9.762;2022-09-03T18:02:38;419.80;;;391.58;;
33254;SDS011;19623;52.482;9.762;2022-09-03T18:15:31;465.30;;;433.10;;
33254;SDS011;19623;52.482;9.762;2022-09-03T18:18:04;479.60;;;446.08;;
33254;SDS011;19623;52.482;9.762;2022-09-03T18:20:41;502.30;;;466.67;;
33254;SDS011;19623;52.482;9.762;2022-09-03T18:23:41;524.80;;;486.85;;
33254;SDS011;19623;52.482;9.762;2022-09-03T18:26:51;579.08;;;536.92;;
33254;SDS011;19623;52.482;9.762;2022-09-03T18:29:48;561.58;;;521.15;;
33254;SDS011;19623;52.482;9.762;2022-09-03T18:32:38;545.78;;;506.88;;
33254;SDS011;19623;52.482;9.762;2022-09-03T18:35:23;570.05;;;528.67;;
33254;SDS011;19623;52.482;9.762;2022-09-03T18:38:11;581.88;;;539.88;;
33254;SDS011;19623;52.482;9.762;2022-09-03T18:40:58;557.58;;;517.33;;
33254;SDS011;19623;52.482;9.762;2022-09-03T18:49:46;599.88;;;556.05;;
33254;SDS011;19623;52.482;9.762;2022-09-03T18:52:50;570.85;;;529.40;;
33254;SDS011;19623;52.482;9.762;2022-09-03T19:02:10;580.70;;;538.25;;
33254;SDS011;19623;52.482;9.762;2022-09-03T19:05:23;594.65;;;551.08;;
33254;SDS011;19623;52.482;9.762;2022-09-03T19:08:23;571.05;;;529.58;;
33254;SDS011;19623;52.482;9.762;2022-09-03T19:21:34;588.88;;;545.38;;
33254;SDS011;19623;52.482;9.762;2022-09-03T19:24:10;594.13;;;550.50;;
33254;SDS011;19623;52.482;9.762;2022-09-03T19:26:58;603.83;;;558.90;;
33254;SDS011;19623;52.482;9.762;2022-09-03T19:30:19;612.25;;;566.83;;
33254;SDS011;19623;52.482;9.762;2022-09-03T19:36:23;523.53;;;485.85;;
33254;SDS011;19623;52.482;9.762;2022-09-03T19:48:39;492.30;;;457.35;;
33254;SDS011;19623;52.482;9.762;2022-09-03T19:51:50;479.00;;;444.77;;
33254;SDS011;19623;52.482;9.762;2022-09-03T19:54:56;514.25;;;477.35;;
33254;SDS011;19623;52.482;9.762;2022-09-03T19:57:42;503.75;;;467.60;;
33254;SDS011;19623;52.482;9.762;2022-09-03T20:00:32;590.53;;;546.65;;
33254;SDS011;19623;52.482;9.762;2022-09-03T20:03:16;583.10;;;540.10;;
33254;SDS011;19623;52.482;9.762;2022-09-03T20:06:01;597.58;;;552.88;;
33254;SDS011;19623;52.482;9.762;2022-09-03T20:08:47;597.00;;;552.85;;
33254;SDS011;19623;52.482;9.762;2022-09-03T20:11:33;587.95;;;544.55;;
33254;SDS011;19623;52.482;9.762;2022-09-03T20:14:01;584.53;;;540.95;;
33254;SDS011;19623;52.482;9.762;2022-09-03T20:19:29;554.70;;;513.85;;
33254;SDS011;19623;52.482;9.762;2022-09-03T20:25:18;584.75;;;541.25;;
33254;SDS011;19623;52.482;9.762;2022-09-03T20:28:12;569.45;;;527.47;;
33254;SDS011;19623;52.482;9.762;2022-09-03T20:36:37;557.15;;;515.75;;
33254;SDS011;19623;52.482;9.762;2022-09-03T20:45:18;585.42;;;542.03;;
33254;SDS011;19623;52.482;9.762;2022-09-03T20:55:53;587.97;;;544.47;;